ETSA

Landsberg Lech Airport

Germany
METAR ETSA 170520Z AUTO 25009KT 3800 // ////// M01/M01 Q1018 ///
Observed Flight Rules
Dec-17 @ 05:20 UTC (49 minutes ago)
Wind Visibility
250° at 9 knots 3,798 meters
Temperatures Readings
Current -1°C / 30°F
Dewpoint -1°C / 30°F
Humidity 100%
Altimeter 30.06" Hg
Pressure 1018 hPa
Elevation 628
METAR ETSA 170520Z AUTO 25009KT 3800 // ////// M01/M01 Q1018 ///
Observed Flight Rules
Dec-17 @ 05:20 UTC
(49 minutes ago)
Wind Visibility
250° at 9 knots 3,798 meters
Temperature Dewpoint
-1°C / 30°F -1°C / 30°F
Humidity Altimeter Pressure
100% 30.06" Hg 1018 hPa